createdAt,value
2022-11-21T00:03:02.424Z,26.1
2022-11-21T00:08:23.835Z,25.8
2022-11-21T00:14:00.847Z,25.6
2022-11-21T00:19:43.484Z,25.2
2022-11-21T00:24:53.979Z,24.3
2022-11-21T00:30:31.341Z,26.1
2022-11-21T00:35:53.223Z,26.6
2022-11-21T00:41:29.772Z,26.4
2022-11-21T00:47:06.706Z,26.1
2022-11-21T00:52:28.484Z,25.8
2022-11-21T00:57:33.939Z,25.5
2022-11-21T01:02:56.227Z,25.2
2022-11-21T01:08:17.730Z,24.1
2022-11-21T01:13:23.847Z,26
2022-11-21T01:18:46.755Z,26.8
2022-11-21T01:24:23.795Z,26.5
2022-11-21T01:30:00.854Z,26.3
2022-11-21T01:35:39.270Z,25.9
2022-11-21T01:41:01.282Z,25.6
2022-11-21T01:46:23.917Z,25.3
2022-11-21T01:52:09.112Z,24.3
2022-11-21T01:57:31.945Z,26.3
2022-11-21T02:02:39.003Z,26.8
2022-11-21T02:08:17.573Z,26.5
2022-11-21T02:13:08.617Z,26.2
2022-11-21T02:18:31.237Z,25.9
2022-11-21T02:23:57.706Z,25.6
2022-11-21T02:29:06.089Z,25.3
2022-11-21T02:34:11.449Z,24.3
2022-11-21T02:39:34.277Z,25.1
2022-11-21T02:44:57.304Z,26.6
2022-11-21T02:50:34.833Z,26.7
2022-11-21T02:56:13.419Z,26.4
2022-11-21T03:01:41.539Z,26
2022-11-21T03:07:19.672Z,25.8
2022-11-21T03:12:57.898Z,25.4
2022-11-21T03:18:19.931Z,24.4
2022-11-21T03:23:57.343Z,25.1
2022-11-21T03:29:35.138Z,26.6
2022-11-21T03:35:12.781Z,26.7
2022-11-21T03:40:50.911Z,26.4
2022-11-21T03:46:13.837Z,26
2022-11-21T03:51:51.336Z,25.7
2022-11-21T03:57:13.337Z,25.3
2022-11-21T04:02:57.417Z,24.8
2022-11-21T04:08:35.648Z,24.6
2022-11-21T04:14:13.171Z,26.5
2022-11-21T04:19:56.527Z,26.8
2022-11-21T04:25:33.967Z,26.5
2022-11-21T04:31:11.774Z,26.1
2022-11-21T04:36:34.674Z,25.8
2022-11-21T04:41:56.720Z,25.5
2022-11-21T04:47:21.882Z,24.8
2022-11-21T04:53:00.328Z,24.6
2022-11-21T04:58:27.088Z,26.4
2022-11-21T05:03:50.031Z,26.8
2022-11-21T05:08:57.455Z,26.6
2022-11-21T05:14:34.829Z,26.3
2022-11-21T05:20:12.676Z,25.9
2022-11-21T05:25:38.141Z,25.6
2022-11-21T05:31:03.616Z,25.3
2022-11-21T05:36:46.183Z,24.3
2022-11-21T05:42:24.225Z,26.1
2022-11-21T05:48:01.667Z,26.8
2022-11-21T05:52:52.751Z,26.6
2022-11-21T05:58:35.499Z,26.3
2022-11-21T06:04:18.501Z,26
2022-11-21T06:09:45.137Z,25.6
2022-11-21T06:15:11.930Z,25.3
2022-11-21T06:20:38.449Z,24.4
2022-11-21T06:26:02.353Z,25.9
2022-11-21T06:31:45.661Z,26.9
2022-11-21T06:37:07.485Z,26.7
2022-11-21T06:42:51.995Z,26.4
2022-11-21T06:48:15.993Z,26.1
2022-11-21T06:53:53.587Z,25.8
2022-11-21T06:59:33.191Z,25.4
2022-11-21T07:05:17.267Z,24.6
2022-11-21T07:11:58.246Z,25
2022-11-21T07:17:36.051Z,26.6
2022-11-21T07:23:17.442Z,26.7
2022-11-21T07:28:56.680Z,26.4
2022-11-21T07:34:34.509Z,26.1
2022-11-21T07:39:57.582Z,25.7
2022-11-21T07:45:41.183Z,25.4
2022-11-21T07:51:02.863Z,24.5
2022-11-21T07:56:46.333Z,25
2022-11-21T08:02:10.724Z,26.5
2022-11-21T08:07:48.897Z,26.8
2022-11-21T08:13:32.751Z,26.5
2022-11-21T08:19:10.435Z,26.2
2022-11-21T08:24:53.501Z,25.9
2022-11-21T08:30:38.261Z,25.5
2022-11-21T08:36:16.555Z,25.2
2022-11-21T08:41:39.053Z,24.3
2022-11-21T08:47:29.923Z,25.7
2022-11-21T08:53:12.500Z,26.8
2022-11-21T08:58:51.531Z,26.7
2022-11-21T09:04:36.560Z,26.3
2022-11-21T09:09:59.913Z,26
2022-11-21T09:15:39.219Z,25.7
2022-11-21T09:21:27.121Z,25.4
2022-11-21T09:27:04.878Z,24.4
2022-11-21T09:32:42.653Z,25.6
2022-11-21T09:38:24.131Z,26.7
2022-11-21T09:44:02.368Z,26.7
2022-11-21T09:49:40.402Z,26.4
2022-11-21T09:55:21.182Z,26
2022-11-21T10:00:59.142Z,25.7
2022-11-21T10:06:43.634Z,25.4
2022-11-21T10:12:26.223Z,24.4
2022-11-21T10:18:05.882Z,25.6
2022-11-21T10:23:44.297Z,26.8
2022-11-21T10:29:22.884Z,26.8
2022-11-21T10:35:01.799Z,26.4
2022-11-21T10:40:44.201Z,26.1
2022-11-21T10:46:23.038Z,25.8
2022-11-21T10:51:45.589Z,25.5
2022-11-21T10:57:27.836Z,24.5
2022-11-21T11:03:08.182Z,25.5
2022-11-21T11:09:14.649Z,26.8
2022-11-21T11:15:09.745Z,26.8
2022-11-21T11:21:03.693Z,26.4
2022-11-21T11:26:25.945Z,26.1
2022-11-21T11:32:05.310Z,25.8
2022-11-21T11:37:28.157Z,25.4
2022-11-21T11:42:53.258Z,24.5
2022-11-21T11:48:31.306Z,25.5
2022-11-21T11:54:39.564Z,26.7
2022-11-21T12:00:18.398Z,26.8
2022-11-21T12:06:09.355Z,26.4
2022-11-21T12:13:22.670Z,26.1
2022-11-21T12:19:07.350Z,25.6
2022-11-21T12:24:47.992Z,25.3
2022-11-21T12:30:26.959Z,24.6
2022-11-21T12:36:17.716Z,26.3
2022-11-21T12:42:02.631Z,27
2022-11-21T12:47:45.194Z,26.7
2022-11-21T12:53:13.834Z,26.3
2022-11-21T12:58:55.410Z,25.9
2022-11-21T13:04:25.391Z,25.6
2022-11-21T13:10:05.116Z,24.6
2022-11-21T13:15:43.890Z,25.8
2022-11-21T13:21:21.704Z,26.9
2022-11-21T13:26:45.388Z,26.9
2022-11-21T13:32:24.501Z,25.6
2022-11-21T13:38:04.598Z,25.1
2022-11-21T13:44:21.191Z,24.6
2022-11-21T13:50:06.633Z,24.3
2022-11-21T13:55:52.989Z,24.1
2022-11-21T14:01:31.675Z,23.8
2022-11-21T14:07:10.098Z,24.4
2022-11-21T14:12:53.656Z,26.1
2022-11-21T14:18:30.827Z,26.9
2022-11-21T14:24:14.814Z,26.8
2022-11-21T14:29:59.523Z,25.3
2022-11-21T14:35:41.349Z,24.9
2022-11-21T14:41:58.172Z,24.6
2022-11-21T14:47:26.098Z,24.3
2022-11-21T14:53:11.728Z,24
2022-11-21T14:59:21.871Z,23.8
2022-11-21T15:05:47.183Z,24.2
2022-11-21T15:13:04.864Z,26.6
2022-11-21T15:19:50.161Z,28.3
2022-11-21T15:25:28.539Z,29.3
2022-11-21T15:31:10.912Z,29.8
2022-11-21T15:37:28.472Z,30
2022-11-21T16:00:18.518Z,30
2022-11-21T16:05:48.517Z,30.8
2022-11-21T16:11:33.743Z,31.1
2022-11-21T16:17:16.028Z,31.2
2022-11-21T16:23:02.202Z,31.4
2022-11-21T16:28:40.295Z,31.8
2022-11-21T16:34:03.619Z,31.9
2022-11-21T16:39:51.603Z,32
2022-11-21T16:45:29.790Z,32.1
2022-11-21T16:50:56.782Z,32.1
2022-11-21T16:56:39.454Z,32.3
2022-11-21T17:02:03.939Z,32.3
2022-11-21T17:07:42.611Z,32.3
2022-11-21T17:13:20.848Z,32.4
2022-11-21T17:18:43.290Z,32.5
2022-11-21T17:24:06.596Z,32.4
2022-11-21T17:29:51.303Z,32.4
2022-11-21T17:35:33.172Z,32.3
2022-11-21T17:41:11.890Z,32.2
2022-11-21T17:46:57.383Z,32
2022-11-21T17:52:21.049Z,31.9
2022-11-21T17:57:49.999Z,31.6
2022-11-21T18:03:31.403Z,31.7
2022-11-21T18:09:14.904Z,31.4
2022-11-21T18:15:16.517Z,32.1
2022-11-21T18:20:47.610Z,32.7
2022-11-21T18:26:26.719Z,32.9
2022-11-21T18:32:23.026Z,33.1
2022-11-21T18:37:30.712Z,33.2
2022-11-21T18:43:39.198Z,33.3
2022-11-21T18:49:52.676Z,33.3
2022-11-21T18:55:34.816Z,33.1
2022-11-21T19:00:59.239Z,32.9
2022-11-21T19:06:26.936Z,33
2022-11-21T19:12:06.814Z,33.4
2022-11-21T19:17:46.412Z,33.4
2022-11-21T19:24:00.834Z,33.6
2022-11-21T19:29:40.719Z,33.7
2022-11-21T19:35:23.587Z,33.7
2022-11-21T19:40:49.162Z,33.7
2022-11-21T19:46:14.895Z,33.6
2022-11-21T19:52:00.171Z,33.7
2022-11-21T19:57:30.841Z,33.8
2022-11-21T20:02:59.034Z,33.8
2022-11-21T20:08:36.277Z,33.7
2022-11-21T20:14:09.183Z,33.6
2022-11-21T20:19:33.350Z,33.5
2022-11-21T20:25:16.178Z,33.5
2022-11-21T20:30:59.884Z,33.7
2022-11-21T20:37:31.151Z,33.8
2022-11-21T20:43:09.390Z,34
2022-11-21T20:53:50.618Z,33.9
2022-11-21T20:59:32.203Z,34.1
2022-11-21T21:05:11.669Z,34.1
2022-11-21T21:10:58.169Z,34
2022-11-21T21:17:14.539Z,33.9
2022-11-21T21:23:10.938Z,33.9
2022-11-21T21:28:57.198Z,33.8
2022-11-21T21:34:39.765Z,33.6
2022-11-21T21:40:22.482Z,33.3
2022-11-21T21:46:01.293Z,33.3
2022-11-21T21:51:39.792Z,32.9
2022-11-21T21:57:18.048Z,33
2022-11-21T22:03:03.141Z,32.6
2022-11-21T22:08:14.351Z,32.3
2022-11-21T22:13:51.658Z,32.2
2022-11-21T22:19:30.115Z,32.1
2022-11-21T22:25:26.762Z,31.8
2022-11-21T22:30:49.189Z,31.6
2022-11-21T22:36:30.010Z,31.3
2022-11-21T22:41:55.713Z,31
2022-11-21T22:47:36.718Z,30.7
2022-11-21T22:53:00.302Z,30.5
2022-11-21T22:58:40.724Z,30.3
2022-11-21T23:04:19.052Z,30.1
2022-11-21T23:09:57.509Z,29.6
2022-11-21T23:15:20.897Z,29.4
2022-11-21T23:20:27.961Z,29.1
2022-11-21T23:25:50.289Z,29
2022-11-21T23:31:13.269Z,28.8
2022-11-21T23:36:50.333Z,28.6
2022-11-21T23:42:27.929Z,28.4
2022-11-21T23:47:50.677Z,28.1
2022-11-21T23:58:51.227Z,27.4
